createdAt,value
2018-10-21T00:00:30.248Z,11.60
2018-10-21T00:03:03.258Z,10.13
2018-10-21T00:05:35.955Z,10.93
2018-10-21T00:08:08.694Z,11.40
2018-10-21T00:10:41.306Z,12.67
2018-10-21T00:13:13.986Z,13.80
2018-10-21T00:15:46.437Z,16.70
2018-10-21T00:18:18.740Z,17.43
2018-10-21T00:20:51.277Z,18.03
2018-10-21T00:23:24.109Z,15.43
2018-10-21T00:25:56.381Z,16.40
2018-10-21T00:28:28.881Z,14.10
2018-10-21T00:31:01.727Z,16.63
2018-10-21T00:33:34.296Z,14.73
2018-10-21T00:36:07.095Z,15.77
2018-10-21T00:38:39.717Z,15.53
2018-10-21T00:41:12.340Z,16.43
2018-10-21T00:43:44.942Z,16.60
2018-10-21T00:46:17.054Z,15.83
2018-10-21T00:48:49.364Z,15.27
2018-10-21T00:51:21.851Z,16.20
2018-10-21T00:53:54.452Z,17.03
2018-10-21T00:56:27.320Z,16.43
2018-10-21T00:58:59.595Z,17.00
2018-10-21T01:01:32.157Z,17.67
2018-10-21T01:04:04.901Z,17.47
2018-10-21T01:06:37.179Z,16.93
2018-10-21T01:09:14.165Z,17.87
2018-10-21T01:11:46.690Z,17.77
2018-10-21T01:14:19.248Z,24.50
2018-10-21T01:16:51.762Z,17.47
2018-10-21T01:19:24.118Z,19.93
2018-10-21T01:21:56.417Z,18.47
2018-10-21T01:24:28.699Z,18.97
2018-10-21T01:27:01.209Z,18.77
2018-10-21T01:29:34.030Z,18.23
2018-10-21T01:32:06.455Z,18.23
2018-10-21T01:34:39.143Z,18.23
2018-10-21T01:37:11.622Z,21.10
2018-10-21T01:40:56.950Z,20.00
2018-10-21T01:43:36.083Z,22.70
2018-10-21T01:46:08.446Z,19.67
2018-10-21T01:48:40.903Z,20.70
2018-10-21T01:51:13.967Z,20.30
2018-10-21T01:53:47.678Z,21.13
2018-10-21T01:56:20.290Z,21.67
2018-10-21T01:58:53.764Z,20.30
2018-10-21T02:01:26.540Z,25.23
2018-10-21T02:03:59.240Z,21.80
2018-10-21T02:06:31.944Z,21.27
2018-10-21T02:09:04.766Z,25.17
2018-10-21T02:11:36.675Z,23.10
2018-10-21T02:14:08.906Z,25.17
2018-10-21T02:16:41.035Z,23.80
2018-10-21T02:19:13.737Z,30.40
2018-10-21T02:21:46.073Z,21.47
2018-10-21T02:24:18.548Z,23.67
2018-10-21T02:26:51.671Z,23.60
2018-10-21T02:29:24.656Z,26.30
2018-10-21T02:31:56.617Z,24.63
2018-10-21T02:34:29.344Z,26.10
2018-10-21T02:37:02.319Z,24.97
2018-10-21T02:39:35.090Z,23.17
2018-10-21T02:42:07.562Z,25.20
2018-10-21T02:44:40.771Z,27.47
2018-10-21T02:47:13.381Z,28.33
2018-10-21T02:49:45.583Z,26.40
2018-10-21T02:52:18.412Z,29.07
2018-10-21T02:54:50.639Z,36.03
2018-10-21T02:57:23.314Z,33.03
2018-10-21T02:59:55.663Z,31.10
2018-10-21T03:02:28.461Z,33.03
2018-10-21T03:05:00.699Z,27.23
2018-10-21T03:07:34.578Z,33.20
2018-10-21T03:10:07.312Z,34.03
2018-10-21T03:12:39.636Z,29.40
2018-10-21T03:15:12.232Z,33.17
2018-10-21T03:17:44.669Z,33.77
2018-10-21T03:20:17.088Z,39.80
2018-10-21T03:22:49.523Z,35.50
2018-10-21T03:25:21.830Z,34.97
2018-10-21T03:27:54.269Z,40.73
2018-10-21T03:30:26.584Z,36.00
2018-10-21T03:32:59.077Z,37.67
2018-10-21T03:35:32.124Z,42.23
2018-10-21T03:38:04.865Z,44.73
2018-10-21T03:40:38.217Z,39.90
2018-10-21T03:43:10.438Z,38.40
2018-10-21T03:45:43.070Z,42.83
2018-10-21T03:48:15.685Z,40.57
2018-10-21T03:50:48.154Z,43.67
2018-10-21T03:53:20.854Z,39.40
2018-10-21T03:55:54.043Z,57.80
2018-10-21T03:58:26.699Z,53.07
2018-10-21T04:00:59.004Z,47.33
2018-10-21T04:03:31.445Z,47.07
2018-10-21T04:06:03.833Z,45.40
2018-10-21T04:08:36.409Z,51.90
2018-10-21T04:11:08.955Z,43.20
2018-10-21T04:13:41.687Z,44.40
2018-10-21T04:16:14.003Z,45.20
2018-10-21T04:18:46.518Z,44.53
2018-10-21T04:21:18.830Z,44.90
2018-10-21T04:23:51.458Z,47.10
2018-10-21T04:26:24.085Z,41.00
2018-10-21T04:28:57.199Z,47.33
2018-10-21T04:31:30.086Z,44.27
2018-10-21T04:34:01.988Z,47.40
2018-10-21T04:36:35.597Z,44.00
2018-10-21T04:39:32.723Z,45.30
2018-10-21T04:42:05.404Z,46.70
2018-10-21T04:44:38.472Z,41.13
2018-10-21T04:47:12.315Z,44.03
2018-10-21T04:49:44.842Z,49.47
2018-10-21T04:52:17.937Z,48.70
2018-10-21T04:54:50.823Z,42.70
2018-10-21T04:57:23.678Z,48.40
2018-10-21T04:59:56.526Z,44.13
2018-10-21T05:02:29.155Z,47.47
2018-10-21T05:05:03.125Z,48.33
2018-10-21T05:07:35.967Z,47.43
2018-10-21T05:10:14.180Z,49.57
2018-10-21T05:12:46.274Z,49.67
2018-10-21T05:15:18.618Z,45.50
2018-10-21T05:17:51.226Z,52.00
2018-10-21T05:20:24.339Z,41.47
2018-10-21T05:22:57.226Z,42.77
2018-10-21T05:25:29.685Z,49.33
2018-10-21T05:28:01.927Z,47.67
2018-10-21T05:30:34.743Z,54.67
2018-10-21T05:33:09.117Z,52.58
2018-10-21T05:35:41.917Z,54.23
2018-10-21T05:38:14.822Z,57.80
2018-10-21T05:40:48.017Z,52.40
2018-10-21T05:43:20.512Z,54.20
2018-10-21T05:45:52.674Z,48.20
2018-10-21T05:48:25.086Z,53.20
2018-10-21T05:50:57.765Z,45.83
2018-10-21T05:53:30.190Z,56.02
2018-10-21T05:56:02.968Z,50.75
2018-10-21T05:58:35.476Z,55.10
2018-10-21T06:01:07.823Z,50.17
2018-10-21T06:03:40.396Z,54.00
2018-10-21T06:06:12.987Z,46.92
2018-10-21T06:08:45.656Z,53.95
2018-10-21T06:11:19.069Z,48.73
2018-10-21T06:13:51.506Z,46.50
2018-10-21T06:16:23.886Z,50.80
2018-10-21T06:19:01.105Z,56.88
2018-10-21T06:21:33.634Z,54.05
2018-10-21T06:24:06.332Z,57.62
2018-10-21T06:26:38.418Z,54.30
2018-10-21T06:29:11.425Z,53.28
2018-10-21T06:31:43.951Z,64.47
2018-10-21T06:34:16.663Z,58.87
2018-10-21T06:36:49.718Z,51.77
2018-10-21T06:39:22.551Z,64.40
2018-10-21T06:41:55.112Z,59.77
2018-10-21T06:44:27.429Z,61.10
2018-10-21T06:46:59.837Z,56.98
2018-10-21T06:49:32.156Z,52.25
2018-10-21T06:52:04.949Z,51.68
2018-10-21T06:54:37.324Z,59.25
2018-10-21T06:57:09.541Z,53.10
2018-10-21T06:59:42.535Z,47.30
2018-10-21T07:02:14.966Z,59.80
2018-10-21T07:04:47.386Z,59.38
2018-10-21T07:07:19.776Z,55.67
2018-10-21T07:09:52.751Z,52.33
2018-10-21T07:12:25.545Z,74.47
2018-10-21T07:14:57.817Z,59.15
2018-10-21T07:17:30.698Z,52.03
2018-10-21T07:20:03.217Z,63.08
2018-10-21T07:22:35.531Z,52.90
2018-10-21T07:25:08.767Z,59.77
2018-10-21T07:27:41.838Z,49.45
2018-10-21T07:30:14.810Z,63.10
2018-10-21T07:32:47.376Z,58.83
2018-10-21T07:35:19.762Z,58.70
2018-10-21T07:37:52.420Z,56.42
2018-10-21T07:40:24.601Z,57.60
2018-10-21T07:42:57.551Z,54.85
2018-10-21T07:45:29.972Z,59.30
2018-10-21T07:48:02.646Z,53.48
2018-10-21T07:50:34.953Z,70.70
2018-10-21T07:53:08.047Z,78.28
2018-10-21T07:55:40.463Z,62.62
2018-10-21T07:58:13.147Z,77.60
2018-10-21T08:00:45.712Z,71.47
2018-10-21T08:03:18.636Z,71.00
2018-10-21T08:06:00.134Z,79.47
2018-10-21T08:08:32.665Z,76.65
2018-10-21T08:11:04.917Z,77.53
2018-10-21T08:13:38.645Z,72.32
2018-10-21T08:16:11.096Z,90.12
2018-10-21T08:18:43.897Z,85.32
2018-10-21T08:21:16.496Z,105.70
2018-10-21T08:23:48.864Z,105.55
2018-10-21T08:26:21.516Z,88.72
2018-10-21T08:28:54.042Z,103.53
2018-10-21T08:31:26.858Z,93.42
2018-10-21T08:33:58.755Z,90.03
2018-10-21T08:36:31.737Z,85.92
2018-10-21T08:39:04.590Z,80.22
2018-10-21T08:41:36.867Z,82.27
2018-10-21T08:44:09.192Z,83.58
2018-10-21T08:46:41.915Z,83.97
2018-10-21T08:49:14.560Z,80.62
2018-10-21T08:51:47.237Z,91.12
2018-10-21T08:54:19.733Z,74.27
2018-10-21T08:56:52.113Z,77.65
2018-10-21T08:59:24.473Z,77.00
2018-10-21T09:01:57.103Z,87.80
2018-10-21T09:04:29.424Z,74.90
2018-10-21T09:07:02.187Z,74.67
2018-10-21T09:09:34.808Z,90.55
2018-10-21T09:12:07.576Z,68.22
2018-10-21T09:14:40.031Z,83.80
2018-10-21T09:17:13.159Z,71.92
2018-10-21T09:19:45.497Z,72.27
2018-10-21T09:22:18.090Z,86.80
2018-10-21T09:24:50.817Z,84.17
2018-10-21T09:27:23.020Z,90.38
2018-10-21T09:29:55.044Z,92.80
2018-10-21T09:32:27.301Z,100.02
2018-10-21T09:34:59.676Z,93.15
2018-10-21T09:37:32.268Z,98.70
2018-10-21T09:40:04.908Z,107.60
2018-10-21T09:42:37.165Z,100.22
2018-10-21T09:45:10.369Z,100.10
2018-10-21T09:47:43.013Z,124.85
2018-10-21T09:50:15.900Z,96.50
2018-10-21T09:52:48.191Z,111.70
2018-10-21T09:55:21.678Z,120.33
2018-10-21T09:57:54.229Z,107.12
2018-10-21T10:02:37.453Z,114.92
2018-10-21T10:05:10.081Z,96.02
2018-10-21T10:07:42.509Z,93.03
2018-10-21T10:10:15.548Z,110.50
2018-10-21T10:12:47.974Z,84.25
2018-10-21T10:15:20.296Z,87.02
2018-10-21T10:17:52.771Z,110.78
2018-10-21T10:20:25.484Z,107.03
2018-10-21T10:22:57.695Z,135.05
2018-10-21T10:25:29.891Z,128.70
2018-10-21T10:28:01.961Z,121.33
2018-10-21T10:30:34.399Z,116.37
2018-10-21T10:33:07.134Z,120.67
2018-10-21T10:35:39.658Z,103.97
2018-10-21T10:38:12.264Z,89.58
2018-10-21T10:40:44.964Z,90.92
2018-10-21T10:43:17.573Z,96.02
2018-10-21T10:45:50.405Z,112.60
2018-10-21T10:48:22.723Z,112.83
2018-10-21T10:50:55.734Z,110.35
2018-10-21T10:53:28.553Z,94.80
2018-10-21T10:56:00.888Z,128.45
2018-10-21T10:58:33.523Z,117.50
2018-10-21T11:01:05.736Z,118.22
2018-10-21T11:03:38.527Z,135.82
2018-10-21T11:06:11.061Z,111.60
2018-10-21T11:08:43.589Z,112.42
2018-10-21T11:11:16.181Z,127.92
2018-10-21T11:13:48.759Z,140.22
2018-10-21T11:16:21.449Z,153.47
2018-10-21T11:18:53.799Z,147.75
2018-10-21T11:21:26.490Z,146.55
2018-10-21T11:23:58.810Z,134.47
2018-10-21T11:26:31.242Z,125.75
2018-10-21T11:29:04.034Z,122.82
2018-10-21T11:31:36.626Z,108.03
2018-10-21T11:34:09.744Z,117.00
2018-10-21T11:36:42.187Z,124.35
2018-10-21T11:39:14.903Z,101.75
2018-10-21T11:41:47.242Z,110.45
2018-10-21T11:44:20.152Z,133.85
2018-10-21T11:46:52.482Z,97.85
2018-10-21T11:49:25.172Z,129.47
2018-10-21T11:51:57.721Z,135.50
2018-10-21T11:54:30.511Z,119.50
2018-10-21T11:57:02.779Z,115.70
2018-10-21T11:59:35.279Z,131.15
2018-10-21T12:02:07.904Z,132.52
2018-10-21T12:04:40.140Z,168.32
2018-10-21T12:07:12.724Z,120.85
2018-10-21T12:09:44.948Z,113.88
2018-10-21T12:12:17.221Z,139.40
2018-10-21T12:14:49.657Z,108.47
2018-10-21T12:17:22.425Z,118.30
2018-10-21T12:19:54.994Z,126.15
2018-10-21T12:22:27.650Z,135.63
2018-10-21T12:25:00.073Z,107.78
2018-10-21T12:27:32.816Z,116.05
2018-10-21T12:30:05.462Z,119.90
2018-10-21T12:32:38.104Z,143.65
2018-10-21T12:35:13.863Z,128.15
2018-10-21T12:37:46.290Z,96.17
2018-10-21T12:40:19.035Z,181.82
2018-10-21T12:42:51.745Z,167.90
2018-10-21T12:45:23.843Z,364.65
2018-10-21T12:47:56.804Z,746.40
2018-10-21T12:50:29.039Z,886.25
2018-10-21T12:53:01.644Z,169.32
2018-10-21T12:55:34.478Z,815.87
2018-10-21T12:58:06.543Z,187.55
2018-10-21T13:00:39.174Z,147.95
2018-10-21T13:03:11.733Z,716.77
2018-10-21T13:05:44.191Z,262.72
2018-10-21T13:08:16.745Z,1050.42
2018-10-21T13:10:49.229Z,1019.57
2018-10-21T13:13:21.586Z,1028.88
2018-10-21T13:15:54.048Z,841.55
2018-10-21T13:18:26.472Z,1033.38
2018-10-21T13:20:59.226Z,1325.65
2018-10-21T13:23:31.791Z,418.05
2018-10-21T13:26:03.874Z,1312.63
2018-10-21T13:28:36.165Z,1053.25
2018-10-21T13:31:08.926Z,1028.88
2018-10-21T13:33:41.559Z,1348.38
2018-10-21T13:36:14.202Z,1272.05
2018-10-21T13:38:46.953Z,316.50
2018-10-21T13:41:19.102Z,229.38
2018-10-21T13:43:51.589Z,959.50
2018-10-21T13:46:23.867Z,899.10
2018-10-21T13:48:56.440Z,1383.83
2018-10-21T13:51:29.468Z,720.05
2018-10-21T13:54:02.181Z,787.27
2018-10-21T13:56:34.610Z,1025.10
2018-10-21T13:59:09.130Z,801.50
2018-10-21T14:01:41.593Z,914.52
2018-10-21T14:04:13.798Z,1190.28
2018-10-21T14:06:46.100Z,456.32
2018-10-21T14:09:18.214Z,583.70
2018-10-21T14:11:50.407Z,1270.78
2018-10-21T14:14:22.982Z,1225.10
2018-10-21T14:16:55.419Z,577.67
2018-10-21T14:19:27.934Z,908.42
2018-10-21T14:22:00.253Z,1268.03
2018-10-21T14:24:32.870Z,529.17
2018-10-21T14:27:05.358Z,679.72
2018-10-21T14:29:38.098Z,451.98
2018-10-21T14:32:10.869Z,295.80
2018-10-21T14:34:43.247Z,914.90
2018-10-21T14:37:16.132Z,1094.58
2018-10-21T14:39:48.554Z,707.85
2018-10-21T14:42:20.970Z,798.50
2018-10-21T14:44:54.215Z,785.23
2018-10-21T14:47:26.333Z,337.25
2018-10-21T14:49:59.440Z,828.27
2018-10-21T14:52:32.014Z,365.20
2018-10-21T14:55:04.749Z,826.25
2018-10-21T14:57:37.261Z,873.75
2018-10-21T15:00:11.726Z,814.65
2018-10-21T15:02:44.240Z,619.50
2018-10-21T15:05:16.817Z,665.00
2018-10-21T15:07:49.896Z,1011.92
2018-10-21T15:10:22.457Z,900.47
2018-10-21T15:12:54.799Z,398.45
2018-10-21T15:15:27.176Z,840.23
2018-10-21T15:17:59.625Z,694.62
2018-10-21T15:20:32.279Z,763.75
2018-10-21T15:23:05.162Z,595.75
2018-10-21T15:25:37.517Z,537.58
2018-10-21T15:28:09.871Z,753.83
2018-10-21T15:30:42.119Z,656.08
2018-10-21T15:33:14.870Z,385.43
2018-10-21T15:35:47.067Z,286.07
2018-10-21T15:38:19.689Z,476.57
2018-10-21T15:40:52.534Z,650.25
2018-10-21T15:43:25.252Z,791.42
2018-10-21T15:45:58.141Z,945.05
2018-10-21T15:48:30.400Z,720.42
2018-10-21T15:51:03.392Z,625.35
2018-10-21T15:53:35.615Z,374.30
2018-10-21T15:56:08.505Z,696.08
2018-10-21T15:58:40.937Z,518.67
2018-10-21T16:01:13.409Z,788.63
2018-10-21T16:03:45.600Z,694.67
2018-10-21T16:06:18.248Z,716.62
2018-10-21T16:08:50.742Z,226.73
2018-10-21T16:11:24.042Z,569.92
2018-10-21T16:13:56.836Z,534.70
2018-10-21T16:16:29.486Z,349.55
2018-10-21T16:19:02.265Z,448.00
2018-10-21T16:21:34.549Z,483.70
2018-10-21T16:24:06.869Z,248.62
2018-10-21T16:26:39.104Z,422.98
2018-10-21T16:29:12.429Z,198.85
2018-10-21T16:31:45.037Z,307.52
2018-10-21T16:34:17.876Z,347.70
2018-10-21T16:36:50.560Z,217.95
2018-10-21T16:39:22.866Z,355.40
2018-10-21T16:41:55.354Z,189.57
2018-10-21T16:44:28.341Z,270.93
2018-10-21T16:47:01.095Z,356.03
2018-10-21T16:49:33.828Z,151.30
2018-10-21T16:52:06.534Z,153.63
2018-10-21T16:54:38.749Z,230.27
2018-10-21T16:57:11.424Z,405.90
2018-10-21T16:59:44.544Z,348.87
2018-10-21T17:02:16.993Z,242.87
2018-10-21T17:04:49.889Z,241.80
2018-10-21T17:07:22.274Z,118.30
2018-10-21T17:09:55.254Z,131.20
2018-10-21T17:12:27.496Z,225.03
2018-10-21T17:14:59.962Z,257.43
2018-10-21T17:17:32.808Z,171.37
2018-10-21T17:20:05.383Z,95.13
2018-10-21T17:22:38.274Z,133.20
2018-10-21T17:25:10.774Z,163.23
2018-10-21T17:27:43.922Z,265.87
2018-10-21T17:30:18.106Z,117.53
2018-10-21T17:32:50.824Z,115.77
2018-10-21T17:35:23.156Z,103.60
2018-10-21T17:37:55.493Z,80.20
2018-10-21T17:40:27.686Z,69.00
2018-10-21T17:43:00.033Z,122.87
2018-10-21T17:45:32.924Z,217.50
2018-10-21T17:48:05.272Z,91.70
2018-10-21T17:50:37.791Z,112.73
2018-10-21T17:53:10.316Z,129.70
2018-10-21T17:55:43.013Z,64.57
2018-10-21T17:58:15.764Z,73.80
2018-10-21T18:00:48.200Z,62.00
2018-10-21T18:03:21.292Z,66.07
2018-10-21T18:05:53.943Z,70.60
2018-10-21T18:08:26.270Z,60.43
2018-10-21T18:10:58.846Z,90.03
2018-10-21T18:13:31.578Z,70.03
2018-10-21T18:16:03.966Z,61.57
2018-10-21T18:18:36.573Z,72.77
2018-10-21T18:21:08.863Z,62.50
2018-10-21T18:23:41.347Z,50.70
2018-10-21T18:26:13.772Z,52.73
2018-10-21T18:28:46.646Z,50.03
2018-10-21T18:31:19.192Z,58.90
2018-10-21T18:33:51.673Z,54.43
2018-10-21T18:36:23.857Z,59.50
2018-10-21T18:38:55.862Z,56.23
2018-10-21T18:41:28.933Z,56.60
2018-10-21T18:44:01.375Z,53.30
2018-10-21T18:46:34.146Z,52.80
2018-10-21T18:49:06.734Z,56.37
2018-10-21T18:51:39.724Z,59.33
2018-10-21T18:54:12.659Z,52.10
2018-10-21T18:56:45.666Z,58.43
2018-10-21T18:59:18.454Z,44.87
2018-10-21T19:01:51.081Z,53.07
2018-10-21T19:04:23.489Z,47.27
2018-10-21T19:06:55.977Z,43.87
2018-10-21T19:09:28.415Z,40.67
2018-10-21T19:12:00.953Z,48.60
2018-10-21T19:14:33.573Z,50.47
2018-10-21T19:17:05.843Z,43.63
2018-10-21T19:19:38.428Z,48.63
2018-10-21T19:22:11.025Z,44.90
2018-10-21T19:24:43.612Z,44.57
2018-10-21T19:27:16.024Z,45.23
2018-10-21T19:29:48.620Z,41.67
2018-10-21T19:32:21.041Z,44.30
2018-10-21T19:34:53.609Z,41.10
2018-10-21T19:37:25.988Z,40.97
2018-10-21T19:39:58.300Z,42.13
2018-10-21T19:42:30.886Z,39.23
2018-10-21T19:45:03.010Z,41.03
2018-10-21T19:47:35.743Z,40.93
2018-10-21T19:50:09.288Z,43.93
2018-10-21T19:52:43.033Z,44.93
2018-10-21T19:55:15.999Z,38.70
2018-10-21T19:57:48.455Z,39.47
2018-10-21T20:00:20.811Z,38.20
2018-10-21T20:02:53.421Z,43.80
2018-10-21T20:05:25.782Z,38.67
2018-10-21T20:07:58.484Z,37.70
2018-10-21T20:10:31.048Z,40.37
2018-10-21T20:13:03.503Z,39.27
2018-10-21T20:15:36.155Z,39.80
2018-10-21T20:18:08.569Z,36.43
2018-10-21T20:20:41.067Z,36.53
2018-10-21T20:23:13.535Z,35.97
2018-10-21T20:25:46.452Z,34.20
2018-10-21T20:28:19.183Z,35.23
2018-10-21T20:30:52.003Z,32.90
2018-10-21T20:33:24.565Z,35.43
2018-10-21T20:35:56.878Z,31.23
2018-10-21T20:38:29.407Z,30.87
2018-10-21T20:41:02.002Z,35.63
2018-10-21T20:43:34.596Z,31.50
2018-10-21T20:46:07.003Z,29.33
2018-10-21T20:48:39.688Z,31.50
2018-10-21T20:51:12.182Z,31.90
2018-10-21T20:53:44.807Z,29.80
2018-10-21T20:56:16.887Z,28.83
2018-10-21T20:58:49.602Z,29.23
2018-10-21T21:01:21.932Z,27.93
2018-10-21T21:03:54.264Z,29.10
2018-10-21T21:06:26.874Z,26.70
2018-10-21T21:09:00.322Z,29.50
2018-10-21T21:11:32.893Z,29.63
2018-10-21T21:14:05.029Z,30.00
2018-10-21T21:16:37.471Z,26.67
2018-10-21T21:19:09.945Z,33.20
2018-10-21T21:21:42.245Z,26.50
2018-10-21T21:24:14.613Z,28.43
2018-10-21T21:26:47.346Z,30.67
2018-10-21T21:29:19.714Z,30.27
2018-10-21T21:31:52.828Z,32.23
2018-10-21T21:34:26.427Z,28.70
2018-10-21T21:36:58.758Z,27.80
2018-10-21T21:39:31.606Z,27.63
2018-10-21T21:42:03.980Z,25.57
2018-10-21T21:44:36.461Z,26.77
2018-10-21T21:47:09.185Z,26.83
2018-10-21T21:49:41.274Z,27.80
2018-10-21T21:52:13.676Z,29.77
2018-10-21T21:54:45.826Z,30.00
2018-10-21T21:57:18.194Z,26.40
2018-10-21T21:59:50.437Z,28.37
2018-10-21T22:02:22.737Z,30.47
2018-10-21T22:04:54.983Z,27.80
2018-10-21T22:07:27.439Z,22.63
2018-10-21T22:09:59.695Z,27.40
2018-10-21T22:12:32.336Z,30.40
2018-10-21T22:15:04.404Z,26.43
2018-10-21T22:17:38.508Z,24.47
2018-10-21T22:20:11.187Z,22.53
2018-10-21T22:22:43.987Z,23.30
2018-10-21T22:25:16.581Z,24.23
2018-10-21T22:27:49.830Z,24.97
2018-10-21T22:30:22.209Z,20.53
2018-10-21T22:32:54.723Z,22.43
2018-10-21T22:35:27.251Z,23.23
2018-10-21T22:37:59.729Z,18.80
2018-10-21T22:40:32.026Z,18.97
2018-10-21T22:43:04.772Z,16.20
2018-10-21T22:45:37.221Z,18.20
2018-10-21T22:48:09.949Z,16.50
2018-10-21T22:50:42.826Z,16.93
2018-10-21T22:53:21.942Z,18.73
2018-10-21T22:55:55.101Z,15.10
2018-10-21T22:58:28.372Z,14.40
2018-10-21T23:01:00.990Z,17.40
2018-10-21T23:03:34.215Z,14.10
2018-10-21T23:06:07.241Z,15.73
2018-10-21T23:08:40.045Z,16.47
2018-10-21T23:11:12.444Z,16.90
2018-10-21T23:13:46.112Z,15.80
2018-10-21T23:16:18.538Z,15.57
2018-10-21T23:18:51.157Z,16.63
2018-10-21T23:21:24.028Z,17.27
2018-10-21T23:23:56.706Z,15.40
2018-10-21T23:26:29.509Z,14.50
2018-10-21T23:29:01.984Z,14.10
2018-10-21T23:31:34.192Z,17.20
2018-10-21T23:34:07.121Z,13.77
2018-10-21T23:36:39.539Z,16.93
2018-10-21T23:39:12.213Z,18.03
2018-10-21T23:41:44.408Z,15.37
2018-10-21T23:44:18.053Z,14.23
2018-10-21T23:46:51.253Z,16.20
2018-10-21T23:49:23.955Z,15.40
2018-10-21T23:51:56.574Z,15.73
2018-10-21T23:54:28.750Z,15.50
2018-10-21T23:57:01.730Z,19.07
2018-10-21T23:59:34.398Z,13.97
